createdAt,value
2022-12-03T00:05:27.366Z,1.8
2022-12-03T00:15:28.360Z,1.8
2022-12-03T00:35:29.178Z,1.8
2022-12-03T00:45:29.381Z,1.9
2022-12-03T00:55:30.070Z,1.8
2022-12-03T01:05:30.880Z,1.8
2022-12-03T01:15:31.252Z,1.8
2022-12-03T01:35:33.026Z,1.8
2022-12-03T01:45:33.218Z,1.8
2022-12-03T02:05:34.313Z,1.7
2022-12-03T02:15:34.728Z,1.7
2022-12-03T02:25:35.117Z,1.7
2022-12-03T02:35:35.254Z,1.7
2022-12-03T02:45:35.671Z,1.6
2022-12-03T02:55:37.540Z,1.6
2022-12-03T03:05:37.369Z,1.7
2022-12-03T03:15:37.715Z,1.7
2022-12-03T03:25:38.555Z,1.6
2022-12-03T03:35:39.192Z,1.6
2022-12-03T03:45:40.029Z,1.5
2022-12-03T03:55:41.001Z,1.5
2022-12-03T04:05:41.596Z,1.5
2022-12-03T04:15:41.982Z,1.4
2022-12-03T04:25:42.788Z,1.4
2022-12-03T04:35:43.190Z,1.4
2022-12-03T04:55:44.271Z,1.4
2022-12-03T05:05:45.280Z,1.4
2022-12-03T05:15:46.212Z,1.4
2022-12-03T05:25:46.587Z,1.4
2022-12-03T05:45:48.816Z,1.4
2022-12-03T05:55:49.258Z,1.4
2022-12-03T06:05:49.393Z,1.3
2022-12-03T06:25:51.286Z,1.1
2022-12-03T06:35:51.963Z,1.1
2022-12-03T06:45:52.256Z,1
2022-12-03T07:05:53.712Z,1
2022-12-03T07:25:55.160Z,1
2022-12-03T07:45:56.533Z,1
2022-12-03T07:55:56.873Z,1
2022-12-03T08:05:57.606Z,1
2022-12-03T08:15:58.215Z,1
2022-12-03T08:35:59.499Z,1
2022-12-03T08:56:00.112Z,1
2022-12-03T09:16:01.852Z,1.1
2022-12-03T09:26:02.099Z,1.1
2022-12-03T09:36:02.869Z,1.1
2022-12-03T09:46:04.010Z,1.2
2022-12-03T09:56:04.571Z,1.2
2022-12-03T10:06:05.140Z,1.2
2022-12-03T10:16:05.813Z,1.2
2022-12-03T10:26:06.346Z,1.2
2022-12-03T10:36:06.628Z,1.2
2022-12-03T10:46:07.058Z,1.2
2022-12-03T10:56:07.415Z,1.2
2022-12-03T11:16:08.604Z,1.4
2022-12-03T11:26:09.793Z,1.4
2022-12-03T11:46:09.972Z,1.4
2022-12-03T11:56:10.985Z,1.4
2022-12-03T12:06:11.633Z,1.4
2022-12-03T12:16:11.858Z,1.4
2022-12-03T12:26:12.224Z,1.4
2022-12-03T12:36:12.817Z,1.4
2022-12-03T12:56:13.137Z,1.3
2022-12-03T13:06:14.243Z,1.2
2022-12-03T13:16:15.221Z,1.2
2022-12-03T13:26:29.433Z,1.2
2022-12-03T13:36:16.723Z,1.2
2022-12-03T13:46:17.740Z,1.2
2022-12-03T13:56:18.730Z,1.2
2022-12-03T14:06:19.193Z,1.2
2022-12-03T14:16:19.417Z,1.2
2022-12-03T14:26:19.569Z,1.2
2022-12-03T14:36:20.206Z,1.1
2022-12-03T14:46:20.929Z,1.1
2022-12-03T14:56:21.107Z,1.1
2022-12-03T15:06:21.983Z,1.1
2022-12-03T15:16:22.337Z,1.1
2022-12-03T15:26:22.406Z,1.1
2022-12-03T15:36:22.754Z,1.1
2022-12-03T15:46:23.768Z,1
2022-12-03T15:56:24.065Z,1
2022-12-03T16:06:24.762Z,1
2022-12-03T16:16:25.224Z,1
2022-12-03T16:26:25.439Z,1
2022-12-03T16:36:25.851Z,0.9
2022-12-03T16:46:26.870Z,0.9
2022-12-03T16:56:27.434Z,0.9
2022-12-03T17:06:28.314Z,0.9
2022-12-03T17:16:28.948Z,0.9
2022-12-03T17:26:29.317Z,0.8
2022-12-03T17:36:29.692Z,0.8
2022-12-03T17:46:30.693Z,0.8
2022-12-03T17:56:30.878Z,0.7
2022-12-03T18:06:31.935Z,0.8
2022-12-03T18:36:32.906Z,0.7
2022-12-03T18:46:52.797Z,0.6
2022-12-03T18:56:34.291Z,0.6
2022-12-03T19:16:35.686Z,0.6
2022-12-03T19:26:36.092Z,0.6
2022-12-03T19:36:36.507Z,0.6
2022-12-03T20:16:39.100Z,0.6
2022-12-03T20:26:39.388Z,0.6
2022-12-03T20:36:39.765Z,0.6
2022-12-03T20:46:40.494Z,0.6
2022-12-03T21:17:06.393Z,0.6
2022-12-03T21:26:42.690Z,0.6
2022-12-03T21:36:43.704Z,0.6
2022-12-03T21:47:08.730Z,0.6
2022-12-03T22:16:47.397Z,0.5
2022-12-03T22:26:47.979Z,0.5
2022-12-03T22:36:48.657Z,0.5
2022-12-03T22:46:49.577Z,0.5
2022-12-03T22:56:50.448Z,0.6
2022-12-03T23:06:50.831Z,0.6
2022-12-03T23:16:51.017Z,0.6
2022-12-03T23:26:51.866Z,0.5
2022-12-03T23:36:52.462Z,0.5
2022-12-03T23:46:52.767Z,0.5
2022-12-03T23:56:52.998Z,0.5
